Terminal Aerodrome Forecast
Issued by NWS

Home | Current Version | Previous Version | Text Only | Print | Product List | Glossary On
Versions: 1 2 3 4 5 6 7 8 9 10 11 12 13 14 15 16 17 18 19
000
FTUS46 KSEW 221757
TAFOLM
TAF
KOLM 221757Z 2218/2318 20005KT P6SM SCT030 BKN040
      TEMPO 2218/2222 -SHRA SCT020 BKN030 OVC040
     FM230200 20003KT P6SM BKN025
     FM231300 16004KT 5SM -RA BR SCT025 OVC040=

USA.gov is the U.S. government's official web portal to all federal, state and local government web resources and services.